sensor_id;sensor_type;location;lat;lon;timestamp;temperature;humidity
52159;DHT22;38145;53.182;6.284;2022-07-06T00:01:36;14.10;99.90
52159;DHT22;38145;53.182;6.284;2022-07-06T00:04:03;14.10;99.90
52159;DHT22;38145;53.182;6.284;2022-07-06T00:06:29;14.10;99.90
52159;DHT22;38145;53.182;6.284;2022-07-06T00:08:55;14.20;99.90
52159;DHT22;38145;53.182;6.284;2022-07-06T00:11:21;14.20;99.90
52159;DHT22;38145;53.182;6.284;2022-07-06T00:13:47;14.20;99.90
52159;DHT22;38145;53.182;6.284;2022-07-06T00:16:13;14.20;99.90
52159;DHT22;38145;53.182;6.284;2022-07-06T00:18:39;14.30;99.90
52159;DHT22;38145;53.182;6.284;2022-07-06T00:21:05;14.30;99.90
52159;DHT22;38145;53.182;6.284;2022-07-06T00:23:31;14.30;99.90
52159;DHT22;38145;53.182;6.284;2022-07-06T00:25:57;14.30;99.90
52159;DHT22;38145;53.182;6.284;2022-07-06T00:28:23;14.40;99.90
52159;DHT22;38145;53.182;6.284;2022-07-06T00:30:48;14.30;99.90
52159;DHT22;38145;53.182;6.284;2022-07-06T00:33:14;14.30;99.90
52159;DHT22;38145;53.182;6.284;2022-07-06T00:35:40;14.20;99.90
52159;DHT22;38145;53.182;6.284;2022-07-06T00:38:06;14.20;99.90
52159;DHT22;38145;53.182;6.284;2022-07-06T00:40:32;14.30;99.90
52159;DHT22;38145;53.182;6.284;2022-07-06T00:42:58;14.20;99.90
52159;DHT22;38145;53.182;6.284;2022-07-06T00:45:24;14.20;99.90
52159;DHT22;38145;53.182;6.284;2022-07-06T00:47:50;14.20;99.90
52159;DHT22;38145;53.182;6.284;2022-07-06T00:50:16;14.20;99.90
52159;DHT22;38145;53.182;6.284;2022-07-06T00:52:52;14.20;99.90
52159;DHT22;38145;53.182;6.284;2022-07-06T00:55:22;14.10;99.90
52159;DHT22;38145;53.182;6.284;2022-07-06T00:57:48;14.10;99.90
52159;DHT22;38145;53.182;6.284;2022-07-06T01:00:17;14.10;99.90
52159;DHT22;38145;53.182;6.284;2022-07-06T01:02:43;14.10;99.90
52159;DHT22;38145;53.182;6.284;2022-07-06T01:05:10;14.10;99.90
52159;DHT22;38145;53.182;6.284;2022-07-06T01:07:38;14.00;99.90
52159;DHT22;38145;53.182;6.284;2022-07-06T01:10:06;13.90;99.90
52159;DHT22;38145;53.182;6.284;2022-07-06T01:12:34;13.90;99.90
52159;DHT22;38145;53.182;6.284;2022-07-06T01:15:02;13.80;99.90
52159;DHT22;38145;53.182;6.284;2022-07-06T01:17:29;13.90;99.90
52159;DHT22;38145;53.182;6.284;2022-07-06T01:19:55;13.90;99.90
52159;DHT22;38145;53.182;6.284;2022-07-06T01:22:21;13.90;99.90
52159;DHT22;38145;53.182;6.284;2022-07-06T01:24:47;14.00;99.90
52159;DHT22;38145;53.182;6.284;2022-07-06T01:27:13;14.00;99.90
52159;DHT22;38145;53.182;6.284;2022-07-06T01:29:38;14.00;99.90
52159;DHT22;38145;53.182;6.284;2022-07-06T01:32:04;14.10;99.90
52159;DHT22;38145;53.182;6.284;2022-07-06T01:34:30;14.10;99.90
52159;DHT22;38145;53.182;6.284;2022-07-06T01:36:56;14.10;99.90
52159;DHT22;38145;53.182;6.284;2022-07-06T01:39:22;14.00;99.90
52159;DHT22;38145;53.182;6.284;2022-07-06T01:41:48;14.00;99.90
52159;DHT22;38145;53.182;6.284;2022-07-06T01:44:14;14.10;99.90
52159;DHT22;38145;53.182;6.284;2022-07-06T01:46:40;14.10;99.90
52159;DHT22;38145;53.182;6.284;2022-07-06T01:49:06;14.10;99.90
52159;DHT22;38145;53.182;6.284;2022-07-06T01:51:32;14.10;99.90
52159;DHT22;38145;53.182;6.284;2022-07-06T01:53:57;14.20;99.90
52159;DHT22;38145;53.182;6.284;2022-07-06T01:56:23;14.20;99.90
52159;DHT22;38145;53.182;6.284;2022-07-06T01:58:49;14.20;99.90
52159;DHT22;38145;53.182;6.284;2022-07-06T02:01:19;14.20;99.90
52159;DHT22;38145;53.182;6.284;2022-07-06T02:03:46;14.20;99.90
52159;DHT22;38145;53.182;6.284;2022-07-06T02:06:12;14.20;99.90
52159;DHT22;38145;53.182;6.284;2022-07-06T02:08:39;14.20;99.90
52159;DHT22;38145;53.182;6.284;2022-07-06T02:11:06;14.20;99.90
52159;DHT22;38145;53.182;6.284;2022-07-06T02:13:33;14.20;99.90
52159;DHT22;38145;53.182;6.284;2022-07-06T02:15:58;14.20;99.90
52159;DHT22;38145;53.182;6.284;2022-07-06T02:18:24;14.20;99.90
52159;DHT22;38145;53.182;6.284;2022-07-06T02:20:50;14.20;99.90
52159;DHT22;38145;53.182;6.284;2022-07-06T02:23:16;14.20;99.90
52159;DHT22;38145;53.182;6.284;2022-07-06T02:25:42;14.30;99.90
52159;DHT22;38145;53.182;6.284;2022-07-06T02:28:07;14.30;99.90
52159;DHT22;38145;53.182;6.284;2022-07-06T02:30:33;14.30;99.90
52159;DHT22;38145;53.182;6.284;2022-07-06T02:32:59;14.30;99.90
52159;DHT22;38145;53.182;6.284;2022-07-06T02:35:25;14.30;99.90
52159;DHT22;38145;53.182;6.284;2022-07-06T02:37:51;14.30;99.90
52159;DHT22;38145;53.182;6.284;2022-07-06T02:40:17;14.40;99.90
52159;DHT22;38145;53.182;6.284;2022-07-06T02:42:42;14.40;99.90
52159;DHT22;38145;53.182;6.284;2022-07-06T02:45:09;14.30;99.90
52159;DHT22;38145;53.182;6.284;2022-07-06T02:47:35;14.30;99.90
52159;DHT22;38145;53.182;6.284;2022-07-06T02:50:01;14.30;99.90
52159;DHT22;38145;53.182;6.284;2022-07-06T02:52:27;14.30;99.90
52159;DHT22;38145;53.182;6.284;2022-07-06T02:54:53;14.30;99.90
52159;DHT22;38145;53.182;6.284;2022-07-06T02:57:19;14.30;99.90
52159;DHT22;38145;53.182;6.284;2022-07-06T02:59:45;14.20;99.90
52159;DHT22;38145;53.182;6.284;2022-07-06T03:02:11;14.20;99.90
52159;DHT22;38145;53.182;6.284;2022-07-06T03:04:37;14.20;99.90
52159;DHT22;38145;53.182;6.284;2022-07-06T03:07:03;14.10;99.90
52159;DHT22;38145;53.182;6.284;2022-07-06T03:09:29;14.10;99.90
52159;DHT22;38145;53.182;6.284;2022-07-06T03:11:55;14.00;99.90
52159;DHT22;38145;53.182;6.284;2022-07-06T03:14:21;14.00;99.90
52159;DHT22;38145;53.182;6.284;2022-07-06T03:16:46;13.90;99.90
52159;DHT22;38145;53.182;6.284;2022-07-06T03:19:12;13.90;99.90
52159;DHT22;38145;53.182;6.284;2022-07-06T03:21:38;13.90;99.90
52159;DHT22;38145;53.182;6.284;2022-07-06T03:24:04;13.80;99.90
52159;DHT22;38145;53.182;6.284;2022-07-06T03:26:30;13.70;99.90
52159;DHT22;38145;53.182;6.284;2022-07-06T03:28:56;13.70;99.90
52159;DHT22;38145;53.182;6.284;2022-07-06T03:31:21;13.60;99.90
52159;DHT22;38145;53.182;6.284;2022-07-06T03:33:47;13.60;99.90
52159;DHT22;38145;53.182;6.284;2022-07-06T03:36:13;13.50;99.90
52159;DHT22;38145;53.182;6.284;2022-07-06T03:38:39;13.50;99.90
52159;DHT22;38145;53.182;6.284;2022-07-06T03:41:05;13.50;99.90
52159;DHT22;38145;53.182;6.284;2022-07-06T03:43:30;13.50;99.90
52159;DHT22;38145;53.182;6.284;2022-07-06T03:45:56;13.40;99.90
52159;DHT22;38145;53.182;6.284;2022-07-06T03:48:22;13.40;99.90
52159;DHT22;38145;53.182;6.284;2022-07-06T03:50:48;13.40;99.90
52159;DHT22;38145;53.182;6.284;2022-07-06T03:53:14;13.40;99.90
52159;DHT22;38145;53.182;6.284;2022-07-06T03:55:40;13.40;99.90
52159;DHT22;38145;53.182;6.284;2022-07-06T03:58:05;13.40;99.90
52159;DHT22;38145;53.182;6.284;2022-07-06T04:00:31;13.30;99.90
52159;DHT22;38145;53.182;6.284;2022-07-06T04:02:57;13.30;99.90
52159;DHT22;38145;53.182;6.284;2022-07-06T04:05:23;13.30;99.90
52159;DHT22;38145;53.182;6.284;2022-07-06T04:07:49;13.30;99.90
52159;DHT22;38145;53.182;6.284;2022-07-06T04:10:16;13.30;99.90
52159;DHT22;38145;53.182;6.284;2022-07-06T04:12:43;13.30;99.90
52159;DHT22;38145;53.182;6.284;2022-07-06T04:15:10;13.30;99.90
52159;DHT22;38145;53.182;6.284;2022-07-06T04:17:36;13.30;99.90
52159;DHT22;38145;53.182;6.284;2022-07-06T04:20:19;13.30;99.90
52159;DHT22;38145;53.182;6.284;2022-07-06T04:22:44;13.30;99.90
52159;DHT22;38145;53.182;6.284;2022-07-06T04:25:10;13.30;99.90
52159;DHT22;38145;53.182;6.284;2022-07-06T04:27:36;13.40;99.90
52159;DHT22;38145;53.182;6.284;2022-07-06T04:30:03;13.40;99.90
52159;DHT22;38145;53.182;6.284;2022-07-06T04:32:29;13.50;99.90
52159;DHT22;38145;53.182;6.284;2022-07-06T04:34:55;13.50;99.90
52159;DHT22;38145;53.182;6.284;2022-07-06T04:37:21;13.40;99.90
52159;DHT22;38145;53.182;6.284;2022-07-06T04:39:47;13.40;99.90
52159;DHT22;38145;53.182;6.284;2022-07-06T04:42:13;13.40;99.90
52159;DHT22;38145;53.182;6.284;2022-07-06T04:44:38;13.40;99.90
52159;DHT22;38145;53.182;6.284;2022-07-06T04:47:04;13.40;99.90
52159;DHT22;38145;53.182;6.284;2022-07-06T04:49:30;13.40;99.90
52159;DHT22;38145;53.182;6.284;2022-07-06T04:51:56;13.40;99.90
52159;DHT22;38145;53.182;6.284;2022-07-06T04:54:22;13.50;99.90
52159;DHT22;38145;53.182;6.284;2022-07-06T04:56:48;13.50;99.90
52159;DHT22;38145;53.182;6.284;2022-07-06T04:59:14;13.60;99.90
52159;DHT22;38145;53.182;6.284;2022-07-06T05:01:40;13.60;99.90
52159;DHT22;38145;53.182;6.284;2022-07-06T05:04:07;13.60;99.90
52159;DHT22;38145;53.182;6.284;2022-07-06T05:06:33;13.60;99.90
52159;DHT22;38145;53.182;6.284;2022-07-06T05:08:59;13.60;99.90
52159;DHT22;38145;53.182;6.284;2022-07-06T05:11:26;13.50;99.90
52159;DHT22;38145;53.182;6.284;2022-07-06T05:13:52;13.50;99.90
52159;DHT22;38145;53.182;6.284;2022-07-06T05:16:18;13.40;99.90
52159;DHT22;38145;53.182;6.284;2022-07-06T05:18:44;13.30;99.90
52159;DHT22;38145;53.182;6.284;2022-07-06T05:21:10;13.30;99.90
52159;DHT22;38145;53.182;6.284;2022-07-06T05:23:35;13.40;99.90
52159;DHT22;38145;53.182;6.284;2022-07-06T05:26:01;13.40;99.90
52159;DHT22;38145;53.182;6.284;2022-07-06T05:28:27;13.50;99.90
52159;DHT22;38145;53.182;6.284;2022-07-06T05:30:53;13.60;99.90
52159;DHT22;38145;53.182;6.284;2022-07-06T05:33:19;13.70;99.90
52159;DHT22;38145;53.182;6.284;2022-07-06T05:35:45;13.80;99.90
52159;DHT22;38145;53.182;6.284;2022-07-06T05:38:11;13.90;99.90
52159;DHT22;38145;53.182;6.284;2022-07-06T05:40:37;14.00;99.90
52159;DHT22;38145;53.182;6.284;2022-07-06T05:43:03;14.00;99.90
52159;DHT22;38145;53.182;6.284;2022-07-06T05:45:29;14.10;99.90
52159;DHT22;38145;53.182;6.284;2022-07-06T05:47:54;14.10;99.90
52159;DHT22;38145;53.182;6.284;2022-07-06T05:50:39;14.20;99.90
52159;DHT22;38145;53.182;6.284;2022-07-06T05:53:06;14.20;99.90
52159;DHT22;38145;53.182;6.284;2022-07-06T05:55:32;14.30;99.90
52159;DHT22;38145;53.182;6.284;2022-07-06T05:57:58;14.30;99.90
52159;DHT22;38145;53.182;6.284;2022-07-06T06:00:25;14.30;99.90
52159;DHT22;38145;53.182;6.284;2022-07-06T06:02:51;14.40;99.90
52159;DHT22;38145;53.182;6.284;2022-07-06T06:05:17;14.40;99.90
52159;DHT22;38145;53.182;6.284;2022-07-06T06:07:44;14.40;99.90
52159;DHT22;38145;53.182;6.284;2022-07-06T06:10:12;14.50;99.90
52159;DHT22;38145;53.182;6.284;2022-07-06T06:12:39;14.50;99.90
52159;DHT22;38145;53.182;6.284;2022-07-06T06:15:06;14.60;99.90
52159;DHT22;38145;53.182;6.284;2022-07-06T06:17:33;14.60;99.90
52159;DHT22;38145;53.182;6.284;2022-07-06T06:20:00;14.60;99.90
52159;DHT22;38145;53.182;6.284;2022-07-06T06:22:26;14.60;99.90
52159;DHT22;38145;53.182;6.284;2022-07-06T06:24:52;14.70;99.90
52159;DHT22;38145;53.182;6.284;2022-07-06T06:27:18;14.80;99.90
52159;DHT22;38145;53.182;6.284;2022-07-06T06:29:44;14.80;99.90
52159;DHT22;38145;53.182;6.284;2022-07-06T06:32:12;14.80;99.90
52159;DHT22;38145;53.182;6.284;2022-07-06T06:34:38;14.90;99.90
52159;DHT22;38145;53.182;6.284;2022-07-06T06:37:04;15.00;99.90
52159;DHT22;38145;53.182;6.284;2022-07-06T06:39:30;15.10;99.90
52159;DHT22;38145;53.182;6.284;2022-07-06T06:41:56;15.30;99.90
52159;DHT22;38145;53.182;6.284;2022-07-06T06:44:21;15.40;99.90
52159;DHT22;38145;53.182;6.284;2022-07-06T06:46:50;15.40;99.90
52159;DHT22;38145;53.182;6.284;2022-07-06T06:49:18;15.50;99.90
52159;DHT22;38145;53.182;6.284;2022-07-06T06:51:44;15.50;99.90
52159;DHT22;38145;53.182;6.284;2022-07-06T06:54:10;15.60;99.90
52159;DHT22;38145;53.182;6.284;2022-07-06T06:56:36;15.70;99.90
52159;DHT22;38145;53.182;6.284;2022-07-06T06:59:02;15.70;99.90
52159;DHT22;38145;53.182;6.284;2022-07-06T07:01:28;15.70;99.90
52159;DHT22;38145;53.182;6.284;2022-07-06T07:03:55;15.90;99.90
52159;DHT22;38145;53.182;6.284;2022-07-06T07:06:21;15.90;99.90
52159;DHT22;38145;53.182;6.284;2022-07-06T07:08:47;16.00;99.90
52159;DHT22;38145;53.182;6.284;2022-07-06T07:11:13;16.00;99.90
52159;DHT22;38145;53.182;6.284;2022-07-06T07:13:39;16.10;99.90
52159;DHT22;38145;53.182;6.284;2022-07-06T07:16:05;16.30;99.90
52159;DHT22;38145;53.182;6.284;2022-07-06T07:18:31;16.50;99.90
52159;DHT22;38145;53.182;6.284;2022-07-06T07:20:57;16.50;99.90
52159;DHT22;38145;53.182;6.284;2022-07-06T07:23:23;16.40;99.90
52159;DHT22;38145;53.182;6.284;2022-07-06T07:25:49;16.40;99.90
52159;DHT22;38145;53.182;6.284;2022-07-06T07:28:15;16.30;99.90
52159;DHT22;38145;53.182;6.284;2022-07-06T07:30:41;16.30;99.90
52159;DHT22;38145;53.182;6.284;2022-07-06T07:33:07;16.60;99.90
52159;DHT22;38145;53.182;6.284;2022-07-06T07:35:32;16.90;99.90
52159;DHT22;38145;53.182;6.284;2022-07-06T07:37:58;17.20;99.90
52159;DHT22;38145;53.182;6.284;2022-07-06T07:40:24;17.50;99.90
52159;DHT22;38145;53.182;6.284;2022-07-06T07:42:50;17.50;99.90
52159;DHT22;38145;53.182;6.284;2022-07-06T07:45:16;17.40;99.90
52159;DHT22;38145;53.182;6.284;2022-07-06T07:47:42;17.30;99.90
52159;DHT22;38145;53.182;6.284;2022-07-06T07:50:09;17.30;99.90
52159;DHT22;38145;53.182;6.284;2022-07-06T07:52:35;17.50;99.90
52159;DHT22;38145;53.182;6.284;2022-07-06T07:55:01;17.60;99.90
52159;DHT22;38145;53.182;6.284;2022-07-06T07:57:26;17.60;99.90
52159;DHT22;38145;53.182;6.284;2022-07-06T07:59:52;17.60;99.90
52159;DHT22;38145;53.182;6.284;2022-07-06T08:02:18;17.60;99.90
52159;DHT22;38145;53.182;6.284;2022-07-06T08:04:44;17.40;99.90
52159;DHT22;38145;53.182;6.284;2022-07-06T08:07:09;17.20;99.90
52159;DHT22;38145;53.182;6.284;2022-07-06T08:09:35;17.10;99.90
52159;DHT22;38145;53.182;6.284;2022-07-06T08:12:01;16.90;99.90
52159;DHT22;38145;53.182;6.284;2022-07-06T08:14:27;16.70;99.90
52159;DHT22;38145;53.182;6.284;2022-07-06T08:16:53;16.70;99.90
52159;DHT22;38145;53.182;6.284;2022-07-06T08:19:19;16.90;99.90
52159;DHT22;38145;53.182;6.284;2022-07-06T08:21:44;17.20;99.90
52159;DHT22;38145;53.182;6.284;2022-07-06T08:24:11;17.60;99.90
52159;DHT22;38145;53.182;6.284;2022-07-06T08:26:37;17.90;99.90
52159;DHT22;38145;53.182;6.284;2022-07-06T08:29:03;18.20;99.90
52159;DHT22;38145;53.182;6.284;2022-07-06T08:31:30;18.40;99.90
52159;DHT22;38145;53.182;6.284;2022-07-06T08:33:56;18.40;99.90
52159;DHT22;38145;53.182;6.284;2022-07-06T08:36:23;18.30;99.90
52159;DHT22;38145;53.182;6.284;2022-07-06T08:38:49;18.00;99.90
52159;DHT22;38145;53.182;6.284;2022-07-06T08:41:16;17.90;99.90
52159;DHT22;38145;53.182;6.284;2022-07-06T08:43:42;17.70;99.90
52159;DHT22;38145;53.182;6.284;2022-07-06T08:46:08;17.60;99.90
52159;DHT22;38145;53.182;6.284;2022-07-06T08:48:36;17.70;99.90
52159;DHT22;38145;53.182;6.284;2022-07-06T08:51:04;17.90;99.90
52159;DHT22;38145;53.182;6.284;2022-07-06T08:53:30;18.10;99.90
52159;DHT22;38145;53.182;6.284;2022-07-06T08:55:56;18.30;99.90
52159;DHT22;38145;53.182;6.284;2022-07-06T08:58:26;18.30;99.90
52159;DHT22;38145;53.182;6.284;2022-07-06T09:00:54;18.20;99.90
52159;DHT22;38145;53.182;6.284;2022-07-06T09:03:20;18.10;99.90
52159;DHT22;38145;53.182;6.284;2022-07-06T09:05:47;18.00;99.90
52159;DHT22;38145;53.182;6.284;2022-07-06T09:08:13;18.00;99.90
52159;DHT22;38145;53.182;6.284;2022-07-06T09:10:39;18.20;99.90
52159;DHT22;38145;53.182;6.284;2022-07-06T09:13:07;18.40;99.90
52159;DHT22;38145;53.182;6.284;2022-07-06T09:15:34;18.50;99.90
52159;DHT22;38145;53.182;6.284;2022-07-06T09:18:02;18.40;99.90
52159;DHT22;38145;53.182;6.284;2022-07-06T09:20:29;18.40;99.90
52159;DHT22;38145;53.182;6.284;2022-07-06T09:23:03;18.50;99.90
52159;DHT22;38145;53.182;6.284;2022-07-06T09:25:30;18.40;99.90
52159;DHT22;38145;53.182;6.284;2022-07-06T09:27:57;18.50;99.90
52159;DHT22;38145;53.182;6.284;2022-07-06T09:30:24;18.80;99.90
52159;DHT22;38145;53.182;6.284;2022-07-06T09:32:53;19.10;99.90
52159;DHT22;38145;53.182;6.284;2022-07-06T09:35:24;19.30;99.90
52159;DHT22;38145;53.182;6.284;2022-07-06T09:38:08;19.20;99.90
52159;DHT22;38145;53.182;6.284;2022-07-06T09:40:41;19.00;99.90
52159;DHT22;38145;53.182;6.284;2022-07-06T09:43:09;18.80;99.90
52159;DHT22;38145;53.182;6.284;2022-07-06T09:45:36;18.80;99.90
52159;DHT22;38145;53.182;6.284;2022-07-06T09:48:10;18.80;99.90
52159;DHT22;38145;53.182;6.284;2022-07-06T09:50:42;18.80;99.90
52159;DHT22;38145;53.182;6.284;2022-07-06T09:53:10;18.90;99.90
52159;DHT22;38145;53.182;6.284;2022-07-06T09:55:37;19.00;99.90
52159;DHT22;38145;53.182;6.284;2022-07-06T09:58:03;19.20;99.90
52159;DHT22;38145;53.182;6.284;2022-07-06T10:00:30;19.50;99.90
52159;DHT22;38145;53.182;6.284;2022-07-06T10:02:56;19.70;99.90
52159;DHT22;38145;53.182;6.284;2022-07-06T10:05:22;19.70;99.90
52159;DHT22;38145;53.182;6.284;2022-07-06T10:07:58;19.60;99.90
52159;DHT22;38145;53.182;6.284;2022-07-06T10:10:26;19.40;99.90
52159;DHT22;38145;53.182;6.284;2022-07-06T10:12:55;19.30;99.90
52159;DHT22;38145;53.182;6.284;2022-07-06T10:15:23;19.50;99.90
52159;DHT22;38145;53.182;6.284;2022-07-06T10:17:50;19.70;99.90
52159;DHT22;38145;53.182;6.284;2022-07-06T10:20:18;19.90;99.90
52159;DHT22;38145;53.182;6.284;2022-07-06T10:22:47;20.00;99.90
52159;DHT22;38145;53.182;6.284;2022-07-06T10:25:16;20.30;99.90
52159;DHT22;38145;53.182;6.284;2022-07-06T10:27:43;20.50;99.90
52159;DHT22;38145;53.182;6.284;2022-07-06T10:30:10;20.60;99.90
52159;DHT22;38145;53.182;6.284;2022-07-06T10:32:39;20.50;99.90
52159;DHT22;38145;53.182;6.284;2022-07-06T10:35:06;20.40;99.90
52159;DHT22;38145;53.182;6.284;2022-07-06T10:37:32;20.70;99.90
52159;DHT22;38145;53.182;6.284;2022-07-06T10:40:00;20.70;99.90
52159;DHT22;38145;53.182;6.284;2022-07-06T10:42:47;20.70;99.90
52159;DHT22;38145;53.182;6.284;2022-07-06T10:50:37;20.90;99.90
52159;DHT22;38145;53.182;6.284;2022-07-06T10:53:10;21.10;99.90
52159;DHT22;38145;53.182;6.284;2022-07-06T10:55:38;21.20;99.90
52159;DHT22;38145;53.182;6.284;2022-07-06T10:58:05;21.40;99.90
52159;DHT22;38145;53.182;6.284;2022-07-06T11:00:51;21.20;99.90
52159;DHT22;38145;53.182;6.284;2022-07-06T11:06:05;20.90;99.90
52159;DHT22;38145;53.182;6.284;2022-07-06T11:08:53;20.90;99.90
52159;DHT22;38145;53.182;6.284;2022-07-06T11:14:04;20.80;99.90
52159;DHT22;38145;53.182;6.284;2022-07-06T11:16:32;20.80;99.90
52159;DHT22;38145;53.182;6.284;2022-07-06T11:19:04;21.00;99.90
52159;DHT22;38145;53.182;6.284;2022-07-06T11:21:36;21.20;99.90
52159;DHT22;38145;53.182;6.284;2022-07-06T11:24:04;21.60;99.90
52159;DHT22;38145;53.182;6.284;2022-07-06T11:26:31;21.90;99.90
52159;DHT22;38145;53.182;6.284;2022-07-06T11:28:58;21.80;99.90
52159;DHT22;38145;53.182;6.284;2022-07-06T11:31:26;21.70;99.90
52159;DHT22;38145;53.182;6.284;2022-07-06T11:33:52;21.80;99.90
52159;DHT22;38145;53.182;6.284;2022-07-06T11:36:19;21.90;99.90
52159;DHT22;38145;53.182;6.284;2022-07-06T11:38:48;22.00;99.90
52159;DHT22;38145;53.182;6.284;2022-07-06T11:41:14;22.00;99.90
52159;DHT22;38145;53.182;6.284;2022-07-06T11:43:42;22.00;99.90
52159;DHT22;38145;53.182;6.284;2022-07-06T11:46:19;22.00;99.90
52159;DHT22;38145;53.182;6.284;2022-07-06T11:48:50;22.10;99.90
52159;DHT22;38145;53.182;6.284;2022-07-06T11:51:16;22.10;99.90
52159;DHT22;38145;53.182;6.284;2022-07-06T11:53:45;22.10;99.90
52159;DHT22;38145;53.182;6.284;2022-07-06T11:56:12;22.10;99.90
52159;DHT22;38145;53.182;6.284;2022-07-06T11:58:39;22.00;99.90
52159;DHT22;38145;53.182;6.284;2022-07-06T12:01:08;21.80;99.90
52159;DHT22;38145;53.182;6.284;2022-07-06T12:03:36;21.90;99.90
52159;DHT22;38145;53.182;6.284;2022-07-06T12:06:15;21.80;99.90
52159;DHT22;38145;53.182;6.284;2022-07-06T12:08:43;21.90;99.90
52159;DHT22;38145;53.182;6.284;2022-07-06T12:11:10;21.60;99.90
52159;DHT22;38145;53.182;6.284;2022-07-06T12:13:42;21.50;99.90
52159;DHT22;38145;53.182;6.284;2022-07-06T12:16:10;21.40;99.90
52159;DHT22;38145;53.182;6.284;2022-07-06T12:18:37;21.50;99.90
52159;DHT22;38145;53.182;6.284;2022-07-06T12:21:09;21.50;99.90
52159;DHT22;38145;53.182;6.284;2022-07-06T12:23:41;21.60;99.90
52159;DHT22;38145;53.182;6.284;2022-07-06T12:26:09;21.60;99.90
52159;DHT22;38145;53.182;6.284;2022-07-06T12:28:36;21.40;99.90
52159;DHT22;38145;53.182;6.284;2022-07-06T12:31:02;21.40;99.90
52159;DHT22;38145;53.182;6.284;2022-07-06T12:33:28;21.40;99.90
52159;DHT22;38145;53.182;6.284;2022-07-06T12:35:56;21.80;99.90
52159;DHT22;38145;53.182;6.284;2022-07-06T12:38:26;21.70;99.90
52159;DHT22;38145;53.182;6.284;2022-07-06T12:40:54;21.50;99.90
52159;DHT22;38145;53.182;6.284;2022-07-06T12:43:39;21.40;99.90
52159;DHT22;38145;53.182;6.284;2022-07-06T12:46:26;21.40;99.90
52159;DHT22;38145;53.182;6.284;2022-07-06T12:48:54;21.20;99.90
52159;DHT22;38145;53.182;6.284;2022-07-06T12:51:22;21.00;99.90
52159;DHT22;38145;53.182;6.284;2022-07-06T12:53:49;20.80;99.90
52159;DHT22;38145;53.182;6.284;2022-07-06T12:56:16;20.70;99.90
52159;DHT22;38145;53.182;6.284;2022-07-06T12:58:59;20.60;99.90
52159;DHT22;38145;53.182;6.284;2022-07-06T13:01:26;20.60;99.90
52159;DHT22;38145;53.182;6.284;2022-07-06T13:03:56;20.60;99.90
52159;DHT22;38145;53.182;6.284;2022-07-06T13:06:33;20.70;99.90
52159;DHT22;38145;53.182;6.284;2022-07-06T13:09:00;20.70;99.90
52159;DHT22;38145;53.182;6.284;2022-07-06T13:11:28;20.70;99.90
52159;DHT22;38145;53.182;6.284;2022-07-06T13:13:54;20.70;99.90
52159;DHT22;38145;53.182;6.284;2022-07-06T13:16:19;20.60;99.90
52159;DHT22;38145;53.182;6.284;2022-07-06T13:18:48;20.50;99.90
52159;DHT22;38145;53.182;6.284;2022-07-06T13:21:13;20.60;99.90
52159;DHT22;38145;53.182;6.284;2022-07-06T13:23:39;20.60;99.90
52159;DHT22;38145;53.182;6.284;2022-07-06T13:26:05;20.70;99.90
52159;DHT22;38145;53.182;6.284;2022-07-06T13:28:31;20.60;99.90
52159;DHT22;38145;53.182;6.284;2022-07-06T13:30:57;20.50;99.90
52159;DHT22;38145;53.182;6.284;2022-07-06T13:33:23;20.40;99.90
52159;DHT22;38145;53.182;6.284;2022-07-06T13:35:49;20.30;99.90
52159;DHT22;38145;53.182;6.284;2022-07-06T13:38:15;20.20;99.90
52159;DHT22;38145;53.182;6.284;2022-07-06T13:40:41;20.10;99.90
52159;DHT22;38145;53.182;6.284;2022-07-06T13:43:07;20.10;99.90
52159;DHT22;38145;53.182;6.284;2022-07-06T13:45:33;20.00;99.90
52159;DHT22;38145;53.182;6.284;2022-07-06T13:47:58;20.00;99.90
52159;DHT22;38145;53.182;6.284;2022-07-06T13:50:24;20.00;99.90
52159;DHT22;38145;53.182;6.284;2022-07-06T13:52:52;19.90;99.90
52159;DHT22;38145;53.182;6.284;2022-07-06T13:55:18;19.80;99.90
52159;DHT22;38145;53.182;6.284;2022-07-06T13:57:44;19.80;99.90
52159;DHT22;38145;53.182;6.284;2022-07-06T14:00:11;19.70;99.90
52159;DHT22;38145;53.182;6.284;2022-07-06T14:02:37;19.60;99.90
52159;DHT22;38145;53.182;6.284;2022-07-06T14:05:03;19.50;99.90
52159;DHT22;38145;53.182;6.284;2022-07-06T14:07:29;19.40;99.90
52159;DHT22;38145;53.182;6.284;2022-07-06T14:09:55;19.30;99.90
52159;DHT22;38145;53.182;6.284;2022-07-06T14:12:21;19.30;99.90
52159;DHT22;38145;53.182;6.284;2022-07-06T14:14:49;19.30;99.90
52159;DHT22;38145;53.182;6.284;2022-07-06T14:17:15;19.30;99.90
52159;DHT22;38145;53.182;6.284;2022-07-06T14:19:42;19.30;99.90
52159;DHT22;38145;53.182;6.284;2022-07-06T14:22:08;19.30;99.90
52159;DHT22;38145;53.182;6.284;2022-07-06T14:24:34;19.30;99.90
52159;DHT22;38145;53.182;6.284;2022-07-06T14:27:01;19.20;99.90
52159;DHT22;38145;53.182;6.284;2022-07-06T14:29:27;19.30;99.90
52159;DHT22;38145;53.182;6.284;2022-07-06T14:31:53;19.20;99.90
52159;DHT22;38145;53.182;6.284;2022-07-06T14:34:19;19.10;99.90
52159;DHT22;38145;53.182;6.284;2022-07-06T14:36:45;18.90;99.90
52159;DHT22;38145;53.182;6.284;2022-07-06T14:39:11;18.70;99.90
52159;DHT22;38145;53.182;6.284;2022-07-06T14:41:38;18.50;99.90
52159;DHT22;38145;53.182;6.284;2022-07-06T14:44:05;18.40;99.90
52159;DHT22;38145;53.182;6.284;2022-07-06T14:46:31;18.10;99.90
52159;DHT22;38145;53.182;6.284;2022-07-06T14:48:57;18.00;99.90
52159;DHT22;38145;53.182;6.284;2022-07-06T14:51:23;17.90;99.90
52159;DHT22;38145;53.182;6.284;2022-07-06T14:53:50;18.00;99.90
52159;DHT22;38145;53.182;6.284;2022-07-06T14:56:16;17.90;99.90
52159;DHT22;38145;53.182;6.284;2022-07-06T14:58:42;18.00;99.90
52159;DHT22;38145;53.182;6.284;2022-07-06T15:01:08;18.00;99.90
52159;DHT22;38145;53.182;6.284;2022-07-06T15:03:36;18.10;99.90
52159;DHT22;38145;53.182;6.284;2022-07-06T15:06:03;18.10;99.90
52159;DHT22;38145;53.182;6.284;2022-07-06T15:08:29;18.10;99.90
52159;DHT22;38145;53.182;6.284;2022-07-06T15:10:55;18.10;99.90
52159;DHT22;38145;53.182;6.284;2022-07-06T15:13:21;18.00;99.90
52159;DHT22;38145;53.182;6.284;2022-07-06T15:15:47;18.00;99.90
52159;DHT22;38145;53.182;6.284;2022-07-06T15:18:13;17.90;99.90
52159;DHT22;38145;53.182;6.284;2022-07-06T15:20:39;17.70;99.90
52159;DHT22;38145;53.182;6.284;2022-07-06T15:23:05;17.60;99.90
52159;DHT22;38145;53.182;6.284;2022-07-06T15:25:31;17.60;99.90
52159;DHT22;38145;53.182;6.284;2022-07-06T15:27:57;17.60;99.90
52159;DHT22;38145;53.182;6.284;2022-07-06T15:30:24;17.50;99.90
52159;DHT22;38145;53.182;6.284;2022-07-06T15:32:51;17.40;99.90
52159;DHT22;38145;53.182;6.284;2022-07-06T15:35:17;17.30;99.90
52159;DHT22;38145;53.182;6.284;2022-07-06T15:37:43;17.20;99.90
52159;DHT22;38145;53.182;6.284;2022-07-06T15:40:09;17.10;99.90